Time;durP1;ratioP1;P1;durP2;ratioP2;P2;SDS_P1;SDS_P2;PMS_P1;PMS_P2;Temp;Humidity;BMP_temperature;BMP_pressure;BME280_temperature;BME280_humidity;BME280_pressure;Samples;Min_cycle;Max_cycle;Signal;HPM_P1;HPM_P2
2022/06/12 00:00:10;;;;;;;13.23;3.63;;;19.40;99.90;;;;;;4994295;28;20600;-56
2022/06/12 00:02:36;;;;;;;10.48;3.67;;;19.40;99.90;;;;;;4993906;28;20176;-56
2022/06/12 00:05:02;;;;;;;14.50;4.47;;;19.30;99.90;;;;;;4993908;28;20668;-56
2022/06/12 00:07:28;;;;;;;11.00;3.83;;;19.30;99.90;;;;;;4993775;28;20173;-55
2022/06/12 00:09:54;;;;;;;12.10;3.85;;;19.20;99.90;;;;;;4994057;28;20176;-55
2022/06/12 00:12:19;;;;;;;12.10;4.18;;;19.30;99.90;;;;;;4994038;28;20207;-56
2022/06/12 00:14:45;;;;;;;11.05;4.00;;;19.30;99.90;;;;;;4993782;28;20654;-56
2022/06/12 00:17:11;;;;;;;6.00;3.67;;;19.40;99.90;;;;;;4994032;28;20204;-56
2022/06/12 00:19:37;;;;;;;9.73;3.95;;;19.30;99.90;;;;;;4993642;28;20165;-56
2022/06/12 00:22:04;;;;;;;9.05;4.32;;;19.30;99.90;;;;;;4993590;28;20242;-56
2022/06/12 00:24:29;;;;;;;10.18;4.00;;;19.30;99.90;;;;;;4993589;28;20169;-56
2022/06/12 00:26:58;;;;;;;8.80;3.83;;;19.10;99.90;;;;;;4993587;28;20187;-55
2022/06/12 00:29:30;;;;;;;12.77;4.40;;;19.20;99.90;;;;;;4993528;28;20161;-56
2022/06/12 00:32:17;;;;;;;18.10;4.15;;;19.10;99.90;;;;;;4993517;28;20186;-55
2022/06/12 00:34:53;;;;;;;14.88;4.15;;;19.10;99.90;;;;;;4993561;28;20184;-56
2022/06/12 00:37:21;;;;;;;13.38;4.00;;;19.00;99.90;;;;;;4993298;28;20208;-55
2022/06/12 00:39:49;;;;;;;14.57;4.22;;;18.90;99.90;;;;;;4993401;28;20169;-56
2022/06/12 00:42:25;;;;;;;13.00;4.68;;;18.70;99.90;;;;;;4993321;28;20646;-56
2022/06/12 00:44:53;;;;;;;13.63;4.13;;;18.90;99.90;;;;;;4993220;28;20258;-56
2022/06/12 00:47:19;;;;;;;17.80;4.95;;;18.80;99.90;;;;;;4993311;28;20183;-56
2022/06/12 00:49:57;;;;;;;14.50;5.03;;;18.70;99.90;;;;;;4992782;28;20169;-56
2022/06/12 00:52:44;;;;;;;13.13;4.43;;;18.60;99.90;;;;;;4993223;28;20173;-56
2022/06/12 00:55:17;;;;;;;13.93;3.90;;;18.60;99.90;;;;;;4993338;28;20164;-56
2022/06/12 00:57:43;;;;;;;15.95;4.90;;;18.70;99.90;;;;;;4992901;28;20251;-56
2022/06/12 01:00:13;;;;;;;17.48;5.05;;;18.60;99.90;;;;;;4975801;28;20538;-56
2022/06/12 01:02:39;;;;;;;14.57;4.72;;;18.70;99.90;;;;;;4993309;28;20169;-56
2022/06/12 01:07:57;;;;;;;9.90;4.30;;;18.60;99.90;;;;;;4993249;28;20210;-56
2022/06/12 01:10:25;;;;;;;9.52;4.18;;;18.60;99.90;;;;;;4992827;28;20220;-56
2022/06/12 01:12:58;;;;;;;12.05;4.03;;;18.60;99.90;;;;;;4993007;28;20172;-56
2022/06/12 01:15:33;;;;;;;12.70;4.18;;;18.50;99.90;;;;;;4992865;28;20263;-56
2022/06/12 01:17:59;;;;;;;13.57;4.30;;;18.30;99.90;;;;;;4992720;28;20211;-56
2022/06/12 01:20:31;;;;;;;10.98;4.60;;;18.30;99.90;;;;;;4992650;28;20211;-56
2022/06/12 01:23:35;;;;;;;15.13;4.65;;;18.30;99.90;;;;;;4975441;28;20708;-55
2022/06/12 01:26:15;;;;;;;16.13;5.13;;;18.20;99.90;;;;;;4992688;28;20173;-55
2022/06/12 01:28:46;;;;;;;11.32;4.53;;;18.30;99.90;;;;;;4975444;28;20263;-56
2022/06/12 01:31:37;;;;;;;13.45;4.30;;;18.30;99.90;;;;;;4992622;28;20196;-56
2022/06/12 01:34:06;;;;;;;10.90;4.40;;;18.30;99.90;;;;;;4992588;28;20187;-56
2022/06/12 01:36:57;;;;;;;13.13;4.30;;;18.20;99.90;;;;;;4992468;28;20666;-55
2022/06/12 01:39:37;;;;;;;15.80;4.70;;;18.90;99.90;;;;;;4992719;28;20184;-56
2022/06/12 01:42:24;;;;;;;15.57;4.80;;;18.10;99.90;;;;;;4992772;28;20182;-56
2022/06/12 01:45:14;;;;;;;13.40;4.25;;;18.10;99.90;;;;;;4992738;28;20255;-56
2022/06/12 01:47:50;;;;;;;12.38;4.57;;;18.10;99.90;;;;;;4975126;28;20248;-56
2022/06/12 01:50:35;;;;;;;14.52;3.85;;;18.00;99.90;;;;;;4992318;28;20207;-56
2022/06/12 01:53:01;;;;;;;11.48;4.00;;;17.70;99.90;;;;;;4992632;28;20274;-56
2022/06/12 01:55:31;;;;;;;20.50;4.97;;;17.70;99.90;;;;;;4992364;28;20252;-56
2022/06/12 01:58:09;;;;;;;11.73;4.00;;;17.70;99.90;;;;;;4992337;28;20242;-56
2022/06/12 02:00:35;;;;;;;11.57;4.18;;;17.80;99.90;;;;;;4992573;28;20199;-56
2022/06/12 02:03:28;;;;;;;10.77;4.10;;;17.80;99.90;;;;;;4995999;28;20212;-56
2022/06/12 02:05:58;;;;;;;11.85;4.07;;;17.80;99.90;;;;;;4996349;28;20623;-56
2022/06/12 02:08:32;;;;;;;12.68;4.47;;;17.70;99.90;;;;;;4996192;28;20165;-56
2022/06/12 02:14:18;;;;;;;10.63;4.35;;;17.70;99.90;;;;;;4996374;28;20219;-56
2022/06/12 02:16:49;;;;;;;8.85;4.05;;;17.50;99.90;;;;;;4996006;28;20294;-56
2022/06/12 02:19:20;;;;;;;13.35;3.75;;;17.60;99.90;;;;;;4995847;28;20191;-56
2022/06/12 02:22:07;;;;;;;13.68;4.40;;;17.50;99.90;;;;;;4996053;28;20157;-56
2022/06/12 02:24:39;;;;;;;12.55;4.18;;;17.40;99.90;;;;;;4995993;28;20260;-56
2022/06/12 02:27:13;;;;;;;12.85;4.00;;;17.30;99.90;;;;;;4995779;28;20165;-56
2022/06/12 02:29:48;;;;;;;14.15;3.88;;;17.40;99.90;;;;;;4996148;28;20175;-56
2022/06/12 02:32:21;;;;;;;10.80;4.07;;;17.30;99.90;;;;;;4995795;28;20561;-56
2022/06/12 02:34:54;;;;;;;23.65;12.57;;;17.30;99.90;;;;;;4995750;28;20169;-56
2022/06/12 02:37:25;;;;;;;13.23;4.30;;;17.20;99.90;;;;;;4995442;28;20274;-56
2022/06/12 02:40:00;;;;;;;7.00;4.10;;;17.20;99.90;;;;;;4995701;28;20174;-56
2022/06/12 02:42:37;;;;;;;11.50;3.80;;;17.10;99.90;;;;;;4995219;28;20223;-56
2022/06/12 02:45:10;;;;;;;10.75;3.72;;;16.90;99.90;;;;;;4995718;28;20172;-56
2022/06/12 02:47:39;;;;;;;17.27;4.57;;;17.00;99.90;;;;;;4995699;28;20208;-56
2022/06/12 02:50:07;;;;;;;13.90;4.72;;;17.00;99.90;;;;;;4995265;28;20191;-56
2022/06/12 02:52:40;;;;;;;11.75;4.50;;;16.90;99.90;;;;;;4977932;28;20168;-56
2022/06/12 02:55:33;;;;;;;16.98;4.28;;;16.80;99.90;;;;;;4995605;28;20537;-56
2022/06/12 02:58:15;;;;;;;9.75;4.00;;;16.90;99.90;;;;;;4994692;28;20200;-56
2022/06/12 03:00:50;;;;;;;13.02;4.53;;;16.90;99.90;;;;;;4995516;28;20536;-55
2022/06/12 03:03:24;;;;;;;9.60;4.57;;;16.90;99.90;;;;;;4995090;28;20622;-55
2022/06/12 03:05:52;;;;;;;12.63;4.65;;;16.90;99.90;;;;;;4995034;28;20169;-56
2022/06/12 03:08:25;;;;;;;11.23;5.30;;;16.80;99.90;;;;;;4977636;28;20169;-56
2022/06/12 03:10:55;;;;;;;11.65;3.95;;;16.80;99.90;;;;;;4995033;28;20573;-55
2022/06/12 03:13:25;;;;;;;9.93;4.40;;;16.70;99.90;;;;;;4994657;28;20531;-55
2022/06/12 03:16:00;;;;;;;10.35;4.70;;;16.80;99.90;;;;;;4994992;28;20714;-55
2022/06/12 03:18:30;;;;;;;12.07;4.05;;;16.80;99.90;;;;;;4977263;28;20635;-55
2022/06/12 03:21:22;;;;;;;15.00;4.70;;;16.80;99.90;;;;;;4995120;28;20522;-55
2022/06/12 03:24:09;;;;;;;19.63;4.88;;;16.60;99.90;;;;;;4995038;28;20164;-55
2022/06/12 03:27:03;;;;;;;13.65;4.03;;;16.60;99.90;;;;;;4994765;28;20215;-56
2022/06/12 03:30:03;;;;;;;13.43;5.47;;;16.60;99.90;;;;;;4994666;28;20173;-56
2022/06/12 03:32:39;;;;;;;9.48;4.75;;;16.60;99.90;;;;;;4977167;28;20560;-56
2022/06/12 03:35:32;;;;;;;9.90;4.20;;;16.60;99.90;;;;;;4994600;28;20164;-55
2022/06/12 03:38:04;;;;;;;16.65;4.82;;;16.70;99.90;;;;;;4994403;28;20208;-56
2022/06/12 03:40:33;;;;;;;11.75;4.72;;;16.60;99.90;;;;;;4994442;28;20187;-56
2022/06/12 03:43:23;;;;;;;12.32;4.25;;;16.60;99.90;;;;;;4994527;28;20585;-56
2022/06/12 03:46:21;;;;;;;17.90;5.65;;;16.50;99.90;;;;;;4994382;28;20208;-56
2022/06/12 03:49:15;;;;;;;15.43;4.97;;;16.50;99.90;;;;;;4994089;28;20230;-56
2022/06/12 03:51:54;;;;;;;13.57;4.55;;;16.40;99.90;;;;;;4994196;28;20165;-55
2022/06/12 03:54:34;;;;;;;11.10;4.90;;;16.30;99.90;;;;;;4994258;28;20176;-56
2022/06/12 04:00:05;;;;;;;16.40;4.47;;;16.30;99.90;;;;;;4994142;28;20295;-55
2022/06/12 04:02:33;;;;;;;18.90;4.60;;;16.30;99.90;;;;;;4994162;28;20644;-56
2022/06/12 04:05:01;;;;;;;18.60;4.65;;;16.40;99.90;;;;;;4994017;28;20183;-56
2022/06/12 04:07:28;;;;;;;14.00;4.70;;;16.50;99.90;;;;;;4976622;28;20247;-56
2022/06/12 04:09:58;;;;;;;11.77;4.22;;;16.40;99.90;;;;;;4993974;28;20516;-56
2022/06/12 04:12:28;;;;;;;11.77;3.85;;;16.50;99.90;;;;;;4993841;28;20645;-56
2022/06/12 04:15:04;;;;;;;11.45;3.72;;;16.40;99.90;;;;;;4993854;28;20175;-55
2022/06/12 04:17:30;;;;;;;10.80;4.38;;;16.40;99.90;;;;;;4993690;28;20701;-55
2022/06/12 04:20:04;;;;;;;15.98;5.00;;;16.40;99.90;;;;;;4993690;28;20242;-55
2022/06/12 04:22:49;;;;;;;17.00;4.70;;;16.50;99.90;;;;;;4993650;28;20644;-56
2022/06/12 04:25:40;;;;;;;11.85;4.60;;;16.60;99.90;;;;;;4975475;28;20638;-56
2022/06/12 04:28:41;;;;;;;13.15;4.75;;;16.70;99.90;;;;;;4993881;28;20173;-56
2022/06/12 04:31:15;;;;;;;13.82;4.68;;;16.70;99.90;;;;;;4993116;28;20187;-56
2022/06/12 04:33:57;;;;;;;14.88;5.07;;;16.60;99.90;;;;;;4993545;28;20634;-56
2022/06/12 04:36:24;;;;;;;15.05;4.93;;;16.70;99.90;;;;;;4993409;28;20169;-56
2022/06/12 04:38:50;;;;;;;12.73;4.57;;;16.90;99.90;;;;;;4993379;28;20173;-57
2022/06/12 04:41:23;;;;;;;10.32;3.83;;;17.20;99.90;;;;;;4993529;28;20195;-56
2022/06/12 04:43:49;;;;;;;10.80;4.50;;;17.20;99.90;;;;;;4993264;28;20168;-56
2022/06/12 04:46:15;;;;;;;11.57;4.60;;;17.30;99.90;;;;;;4993295;28;20505;-56
2022/06/12 04:48:42;;;;;;;13.25;4.13;;;17.60;99.90;;;;;;4975625;28;20303;-56
2022/06/12 04:51:10;;;;;;;14.30;5.47;;;17.70;99.90;;;;;;4993468;28;20164;-56
2022/06/12 04:53:36;;;;;;;11.70;4.43;;;17.70;99.90;;;;;;4993387;28;20173;-56
2022/06/12 04:56:02;;;;;;;9.85;4.15;;;17.60;99.90;;;;;;4993075;28;20177;-56
2022/06/12 04:58:28;;;;;;;12.40;4.35;;;17.60;99.90;;;;;;4992902;28;20211;-56
2022/06/12 05:00:54;;;;;;;13.02;4.18;;;17.80;99.90;;;;;;4993122;28;20169;-56
2022/06/12 05:03:19;;;;;;;11.35;4.10;;;18.00;99.90;;;;;;4992973;28;20173;-56
2022/06/12 05:05:45;;;;;;;14.15;4.10;;;18.00;99.90;;;;;;4992912;28;20168;-55
2022/06/12 05:08:11;;;;;;;9.88;4.15;;;18.00;99.90;;;;;;4993236;28;20183;-56
2022/06/12 05:10:37;;;;;;;10.32;4.28;;;18.00;99.90;;;;;;4993153;28;20247;-56
2022/06/12 05:13:03;;;;;;;11.50;4.30;;;18.00;99.90;;;;;;4975431;28;20164;-56
2022/06/12 05:15:29;;;;;;;12.85;4.13;;;18.00;99.90;;;;;;4992789;28;20241;-56
2022/06/12 05:17:55;;;;;;;10.27;4.43;;;18.00;99.90;;;;;;4975258;28;20216;-55
2022/06/12 05:20:26;;;;;;;12.02;4.60;;;18.10;99.90;;;;;;4992870;28;20173;-56
2022/06/12 05:22:52;;;;;;;8.02;4.13;;;18.10;99.90;;;;;;4975177;28;20638;-56
2022/06/12 05:25:18;;;;;;;10.95;3.95;;;18.20;99.90;;;;;;4992874;28;20227;-56
2022/06/12 05:27:45;;;;;;;10.25;3.53;;;18.10;99.90;;;;;;4992706;28;20173;-56
2022/06/12 05:30:18;;;;;;;10.98;4.50;;;18.10;99.90;;;;;;4992645;28;20530;-55
2022/06/12 05:32:44;;;;;;;14.27;4.00;;;18.10;99.90;;;;;;4992593;28;20635;-56
2022/06/12 05:35:11;;;;;;;10.75;3.95;;;18.10;99.90;;;;;;4992537;28;20307;-56
2022/06/12 05:37:38;;;;;;;8.13;3.47;;;18.20;99.90;;;;;;4992947;28;20239;-56
2022/06/12 05:40:07;;;;;;;8.93;3.35;;;18.40;99.90;;;;;;4993082;28;20571;-56
2022/06/12 05:42:32;;;;;;;8.77;3.97;;;18.50;99.90;;;;;;4992517;28;20179;-56
2022/06/12 05:44:58;;;;;;;8.05;3.72;;;18.50;99.90;;;;;;4992421;28;20746;-56
2022/06/12 05:47:23;;;;;;;8.68;3.33;;;18.40;99.90;;;;;;4992298;28;20172;-56
2022/06/12 05:49:49;;;;;;;9.57;3.85;;;18.40;99.90;;;;;;4992645;28;20176;-56
2022/06/12 05:52:15;;;;;;;12.00;3.80;;;18.50;99.90;;;;;;4974969;28;20180;-56
2022/06/12 05:54:41;;;;;;;7.28;3.17;;;18.50;99.90;;;;;;4992375;28;20169;-56
2022/06/12 05:57:07;;;;;;;6.68;3.42;;;18.50;99.90;;;;;;4975158;28;20332;-56
2022/06/12 05:59:33;;;;;;;11.27;3.30;;;18.50;99.90;;;;;;4992363;28;20177;-55
2022/06/12 06:01:58;;;;;;;10.27;3.00;;;18.40;99.90;;;;;;4992236;28;20179;-56
2022/06/12 06:04:24;;;;;;;8.57;3.10;;;18.40;99.90;;;;;;4992268;28;20545;-55
2022/06/12 06:06:53;;;;;;;9.05;3.30;;;18.40;99.90;;;;;;4992339;28;20268;-56
2022/06/12 06:09:20;;;;;;;4.50;2.70;;;18.70;99.90;;;;;;4992303;28;20180;-56
2022/06/12 06:11:46;;;;;;;7.30;3.35;;;18.70;99.90;;;;;;4974886;28;20165;-56
2022/06/12 06:14:12;;;;;;;10.30;2.67;;;18.60;99.90;;;;;;4992487;28;20188;-56
2022/06/12 06:16:39;;;;;;;9.70;3.00;;;18.50;99.90;;;;;;4992295;28;20199;-55
2022/06/12 06:19:05;;;;;;;4.43;2.65;;;18.60;99.90;;;;;;4992300;28;20324;-55
2022/06/12 06:21:31;;;;;;;8.45;3.03;;;18.50;99.90;;;;;;4992113;28;20677;-55
2022/06/12 06:23:56;;;;;;;7.38;2.70;;;18.50;99.90;;;;;;4991994;28;20634;-55
2022/06/12 06:26:23;;;;;;;11.05;3.17;;;18.60;99.90;;;;;;4994507;28;20168;-55
2022/06/12 06:28:53;;;;;;;7.95;3.00;;;18.60;99.90;;;;;;4983515;28;20181;-55
2022/06/12 06:31:19;;;;;;;5.95;3.13;;;18.60;99.90;;;;;;5011249;28;20175;-55
2022/06/12 06:33:45;;;;;;;8.25;2.90;;;18.80;99.90;;;;;;5011671;28;20182;-56
2022/06/12 06:36:12;;;;;;;8.32;2.97;;;18.70;99.90;;;;;;5011660;28;20243;-56
2022/06/12 06:38:38;;;;;;;8.27;2.95;;;18.90;99.90;;;;;;5011843;28;20257;-56
2022/06/12 06:41:05;;;;;;;9.75;3.03;;;19.00;99.90;;;;;;5011900;28;20195;-56
2022/06/12 06:46:13;;;;;;;6.45;2.80;;;18.90;99.90;;;;;;5011871;28;20183;-56
2022/06/12 06:46:16;;;;;;;6.38;2.60;;;19.00;99.90;;;;;;5011258;28;20172;-56
2022/06/12 06:48:42;;;;;;;5.40;2.50;;;19.10;99.90;;;;;;5014284;28;20270;-56
2022/06/12 06:51:08;;;;;;;10.98;2.83;;;19.00;99.90;;;;;;5015385;28;20164;-56
2022/06/12 06:53:33;;;;;;;10.77;2.92;;;19.20;99.90;;;;;;5015524;28;20168;-56
2022/06/12 06:55:59;;;;;;;6.40;2.38;;;18.90;99.90;;;;;;5014962;28;20626;-56
2022/06/12 06:58:26;;;;;;;6.22;2.28;;;19.10;99.90;;;;;;5014834;28;20203;-56
2022/06/12 07:00:53;;;;;;;7.85;3.20;;;19.20;99.90;;;;;;5014835;28;20180;-56
2022/06/12 07:03:19;;;;;;;6.30;2.45;;;19.20;99.90;;;;;;5015023;28;20187;-56
2022/06/12 07:05:46;;;;;;;6.97;2.17;;;19.30;99.90;;;;;;5014839;28;20164;-56
2022/06/12 07:08:13;;;;;;;5.57;1.92;;;19.40;99.90;;;;;;5014831;28;20259;-56
2022/06/12 07:10:39;;;;;;;6.47;2.35;;;19.40;99.90;;;;;;5014699;28;20226;-56
2022/06/12 07:13:05;;;;;;;9.45;2.40;;;19.30;99.90;;;;;;5014934;28;20164;-56
2022/06/12 07:15:32;;;;;;;5.07;1.77;;;19.40;99.90;;;;;;5014486;28;20213;-55
2022/06/12 07:17:59;;;;;;;9.18;2.63;;;19.50;99.90;;;;;;5014589;28;20218;-56
2022/06/12 07:20:32;;;;;;;5.78;2.05;;;19.60;99.90;;;;;;5014341;28;20165;-55
2022/06/12 07:22:58;;;;;;;4.13;2.13;;;19.80;99.90;;;;;;5013991;28;20569;-56
2022/06/12 07:25:24;;;;;;;5.65;2.00;;;19.80;99.90;;;;;;5014417;28;20246;-56
2022/06/12 07:27:50;;;;;;;4.80;2.10;;;19.90;99.90;;;;;;5014079;28;20311;-55
2022/06/12 07:30:19;;;;;;;7.70;2.53;;;19.70;99.90;;;;;;5014153;28;20226;-55
2022/06/12 07:32:45;;;;;;;5.22;2.00;;;19.90;99.90;;;;;;5014203;28;20187;-56
2022/06/12 07:35:11;;;;;;;6.38;2.50;;;20.10;99.90;;;;;;5014135;28;20168;-56
2022/06/12 07:37:38;;;;;;;5.38;2.00;;;20.10;99.90;;;;;;5014457;28;20207;-55
2022/06/12 07:40:07;;;;;;;3.15;2.03;;;20.00;99.90;;;;;;5014347;28;20175;-55
2022/06/12 07:42:33;;;;;;;6.45;1.80;;;20.10;99.90;;;;;;5013539;28;20172;-56
2022/06/12 07:44:59;;;;;;;4.13;1.55;;;20.30;99.90;;;;;;5014070;28;20172;-56
2022/06/12 07:47:24;;;;;;;8.63;1.83;;;20.20;99.90;;;;;;5013592;28;20230;-55
2022/06/12 07:49:51;;;;;;;4.40;1.58;;;20.10;99.90;;;;;;5014000;28;20168;-56
2022/06/12 07:52:25;;;;;;;4.22;1.80;;;20.20;99.90;;;;;;4996455;28;20233;-56
2022/06/12 07:54:51;;;;;;;7.18;1.55;;;20.30;99.90;;;;;;5013836;28;20171;-55
2022/06/12 07:57:16;;;;;;;6.38;1.75;;;20.30;99.90;;;;;;5013615;28;20720;-56
2022/06/12 07:59:42;;;;;;;3.83;1.48;;;20.30;99.90;;;;;;5012298;28;20211;-56
2022/06/12 08:02:08;;;;;;;4.43;1.80;;;20.30;99.90;;;;;;5013767;28;20164;-56
2022/06/12 08:04:33;;;;;;;5.35;1.85;;;20.50;99.90;;;;;;5013956;28;20640;-57
2022/06/12 08:06:59;;;;;;;4.38;1.77;;;20.50;99.90;;;;;;5013585;28;20175;-56
2022/06/12 08:09:24;;;;;;;6.20;2.05;;;20.70;99.90;;;;;;5013426;28;20537;-56
2022/06/12 08:11:51;;;;;;;6.70;2.30;;;20.90;99.90;;;;;;4996040;28;20176;-56
2022/06/12 08:14:19;;;;;;;4.43;1.58;;;20.80;99.90;;;;;;5013530;28;20226;-56
2022/06/12 08:16:44;;;;;;;4.30;1.85;;;20.60;99.90;;;;;;5013340;28;20661;-56
2022/06/12 08:21:57;;;;;;;6.20;2.00;;;21.10;99.90;;;;;;5013425;28;20178;-56
2022/06/12 08:24:23;;;;;;;7.13;2.00;;;21.10;99.90;;;;;;5012868;28;20247;-56
2022/06/12 08:26:49;;;;;;;5.07;1.88;;;21.30;99.90;;;;;;5013038;28;20645;-56
2022/06/12 08:29:15;;;;;;;6.70;1.80;;;21.20;99.90;;;;;;5012973;28;20165;-56
2022/06/12 08:32:04;;;;;;;3.50;1.60;;;21.30;99.90;;;;;;5012429;28;20179;-56
2022/06/12 08:34:37;;;;;;;2.83;2.03;;;21.10;99.90;;;;;;5012861;28;20222;-56
2022/06/12 08:37:09;;;;;;;3.30;1.27;;;21.20;99.90;;;;;;5013337;28;20553;-56
2022/06/12 08:39:34;;;;;;;2.72;1.17;;;21.30;99.90;;;;;;5013405;28;20222;-56
2022/06/12 08:42:09;;;;;;;9.13;1.80;;;21.50;99.90;;;;;;5013331;28;20172;-56
2022/06/12 08:44:45;;;;;;;5.20;1.77;;;21.70;99.90;;;;;;5012834;28;20246;-56
2022/06/12 08:47:17;;;;;;;2.03;1.35;;;21.90;99.90;;;;;;5012788;28;20270;-56
2022/06/12 08:49:53;;;;;;;2.33;1.48;;;21.80;99.90;;;;;;4994945;28;20620;-56
2022/06/12 08:52:18;;;;;;;5.43;1.60;;;21.50;99.90;;;;;;5012709;28;20168;-55
2022/06/12 08:54:53;;;;;;;3.15;1.63;;;21.80;99.90;;;;;;5012310;28;20554;-56
2022/06/12 08:57:26;;;;;;;5.45;2.10;;;22.00;99.90;;;;;;5012559;28;20207;-56
2022/06/12 09:00:00;;;;;;;4.32;1.40;;;22.10;99.90;;;;;;5012585;28;20170;-56
2022/06/12 09:02:30;;;;;;;6.43;2.05;;;22.10;99.90;;;;;;5012344;28;20660;-56
2022/06/12 09:04:57;;;;;;;5.97;1.90;;;21.90;99.90;;;;;;5012782;28;20179;-56
2022/06/12 09:07:59;;;;;;;3.63;1.65;;;21.80;99.90;;;;;;5012379;28;20175;-56
2022/06/12 09:10:39;;;;;;;6.32;1.92;;;21.90;99.90;;;;;;5012111;28;20175;-56
2022/06/12 09:13:08;;;;;;;5.32;1.77;;;22.10;99.90;;;;;;5012662;28;20168;-56
2022/06/12 09:15:38;;;;;;;4.10;1.77;;;22.10;99.90;;;;;;5012567;28;20581;-56
2022/06/12 09:18:35;;;;;;;4.50;1.75;;;22.30;99.90;;;;;;5012806;28;20571;-56
2022/06/12 09:21:07;;;;;;;4.35;1.65;;;22.20;99.90;;;;;;5012252;28;20164;-56
2022/06/12 09:23:56;;;;;;;4.35;1.77;;;22.10;99.90;;;;;;5012605;28;20660;-56
2022/06/12 09:26:42;;;;;;;6.72;2.00;;;22.10;99.90;;;;;;5012188;28;20176;-56
2022/06/12 09:29:32;;;;;;;4.20;2.20;;;21.80;99.90;;;;;;4994604;28;20585;-56
2022/06/12 09:32:04;;;;;;;4.88;2.00;;;22.40;99.90;;;;;;5012024;28;20164;-56
2022/06/12 09:34:52;;;;;;;7.25;2.20;;;22.30;99.90;;;;;;4994191;28;20176;-56
2022/06/12 09:40:33;;;;;;;5.40;2.00;;;22.30;99.90;;;;;;5012041;28;20171;-56
2022/06/12 09:43:27;;;;;;;4.75;1.70;;;22.20;99.90;;;;;;5012015;28;20172;-56
2022/06/12 09:45:58;;;;;;;4.72;1.88;;;22.50;99.90;;;;;;5012276;28;20195;-56
2022/06/12 09:48:30;;;;;;;3.97;2.95;;;22.50;99.90;;;;;;5012048;28;20223;-56
2022/06/12 09:51:09;;;;;;;4.60;2.03;;;22.60;99.90;;;;;;5011713;28;20222;-56
2022/06/12 09:53:35;;;;;;;6.38;2.05;;;22.80;99.90;;;;;;5012401;28;20175;-56
2022/06/12 09:56:13;;;;;;;5.70;2.40;;;22.70;99.90;;;;;;5011175;28;20595;-56
2022/06/12 09:59:05;;;;;;;7.50;2.50;;;22.70;99.90;;;;;;5010396;28;20338;-56
2022/06/12 10:01:37;;;;;;;5.80;1.83;;;22.80;99.90;;;;;;5011480;28;20164;-56
2022/06/12 10:04:26;;;;;;;7.43;2.45;;;23.10;99.90;;;;;;5012210;28;20172;-56
2022/06/12 10:07:13;;;;;;;5.25;2.28;;;23.00;99.90;;;;;;5011027;28;20518;-56
2022/06/12 10:09:47;;;;;;;5.45;2.20;;;23.20;99.90;;;;;;5011823;28;20178;-56
2022/06/12 10:12:23;;;;;;;6.38;2.22;;;23.30;99.90;;;;;;5011427;28;20242;-56
2022/06/12 10:14:54;;;;;;;6.47;2.38;;;23.30;99.90;;;;;;5011477;28;20164;-56
2022/06/12 10:17:46;;;;;;;4.85;1.70;;;23.50;99.90;;;;;;5011254;28;20291;-57
2022/06/12 10:20:26;;;;;;;4.25;1.67;;;23.50;99.90;;;;;;4998691;28;20184;-56
2022/06/12 10:22:54;;;;;;;6.18;2.30;;;23.50;99.90;;;;;;5013380;28;20167;-56
2022/06/12 10:25:33;;;;;;;7.68;2.63;;;23.60;99.90;;;;;;5015283;28;20218;-56
2022/06/12 10:28:14;;;;;;;4.32;2.10;;;23.60;99.90;;;;;;5015162;28;20164;-56
2022/06/12 10:30:43;;;;;;;4.25;1.98;;;23.60;99.90;;;;;;5014840;28;20577;-56
2022/06/12 10:33:22;;;;;;;3.13;1.67;;;23.90;99.90;;;;;;5014790;28;20187;-56
2022/06/12 10:35:55;;;;;;;9.18;2.35;;;23.70;99.90;;;;;;4997117;28;20176;-57
2022/06/12 10:38:27;;;;;;;6.80;1.95;;;23.70;99.90;;;;;;5013557;28;20265;-57
2022/06/12 10:40:59;;;;;;;4.60;1.92;;;23.70;99.90;;;;;;5013613;28;20166;-58
2022/06/12 10:43:43;;;;;;;6.72;2.40;;;24.00;99.90;;;;;;5013488;28;20256;-57
2022/06/12 10:46:30;;;;;;;6.22;2.15;;;23.90;99.90;;;;;;5014719;28;20777;-57
2022/06/12 10:49:16;;;;;;;7.05;2.00;;;23.90;99.90;;;;;;5013754;28;20214;-56
2022/06/12 10:51:44;;;;;;;6.78;2.03;;;24.00;99.90;;;;;;5013391;28;20171;-54
2022/06/12 10:54:18;;;;;;;5.72;2.20;;;23.90;99.90;;;;;;5013182;28;20187;-57
2022/06/12 10:57:13;;;;;;;6.93;2.22;;;24.30;99.90;;;;;;5013286;28;20668;-57
2022/06/12 10:59:57;;;;;;;8.38;2.50;;;24.30;99.90;;;;;;5013030;28;20172;-56
2022/06/12 11:02:37;;;;;;;8.23;2.67;;;24.40;99.90;;;;;;5012966;28;20163;-55
2022/06/12 11:05:37;;;;;;;6.28;2.33;;;24.50;99.90;;;;;;5013402;28;20198;-58
2022/06/12 11:08:14;;;;;;;7.38;2.28;;;24.60;99.90;;;;;;5013373;28;20670;-58
2022/06/12 11:10:45;;;;;;;7.55;2.30;;;24.60;99.90;;;;;;5012051;28;20174;-57
2022/06/12 11:13:40;;;;;;;6.63;2.15;;;24.10;99.90;;;;;;5005688;28;20259;-57
2022/06/12 11:16:29;;;;;;;6.97;2.47;;;23.90;99.90;;;;;;4996938;28;20646;-57
2022/06/12 11:19:26;;;;;;;11.43;2.63;;;24.50;99.90;;;;;;4994988;28;20195;-57
2022/06/12 11:22:05;;;;;;;9.30;2.45;;;24.70;99.90;;;;;;4977361;28;20175;-58
2022/06/12 11:24:54;;;;;;;7.20;2.30;;;24.80;99.90;;;;;;4977452;28;20254;-57
2022/06/12 11:27:31;;;;;;;8.35;2.28;;;24.80;99.90;;;;;;4994777;28;20173;-57
2022/06/12 11:30:11;;;;;;;10.02;2.80;;;24.90;99.90;;;;;;4994667;28;20251;-57
2022/06/12 11:32:46;;;;;;;5.28;2.10;;;25.20;99.90;;;;;;4994593;28;20247;-57
2022/06/12 11:35:31;;;;;;;10.35;2.47;;;25.50;99.90;;;;;;4994738;28;20163;-57
2022/06/12 11:38:18;;;;;;;6.13;2.50;;;25.60;99.90;;;;;;4994365;28;20676;-57
2022/06/12 11:41:09;;;;;;;10.48;2.50;;;25.70;99.90;;;;;;4976692;28;20207;-57
2022/06/12 11:43:41;;;;;;;8.02;3.05;;;25.80;99.90;;;;;;4994577;28;20247;-57
2022/06/12 11:46:34;;;;;;;9.18;3.35;;;25.40;99.90;;;;;;4993301;28;20180;-57
2022/06/12 11:49:37;;;;;;;7.65;2.40;;;25.50;99.90;;;;;;4993468;28;20212;-57
2022/06/12 11:52:28;;;;;;;5.15;1.95;;;25.50;99.90;;;;;;4934092;29;20177;-57
2022/06/12 11:55:17;;;;;;;8.75;2.45;;;25.20;99.90;;;;;;4992304;28;20237;-57
2022/06/12 11:58:03;;;;;;;7.25;2.55;;;25.70;99.90;;;;;;4994010;28;20227;-57
2022/06/12 12:00:48;;;;;;;9.35;2.80;;;25.90;99.90;;;;;;4993606;28;20160;-57
2022/06/12 12:03:46;;;;;;;9.48;2.55;;;25.40;99.90;;;;;;4994088;28;20247;-57
2022/06/12 12:06:39;;;;;;;4.93;2.13;;;24.90;99.90;;;;;;4993880;28;20253;-57
2022/06/12 12:09:26;;;;;;;9.85;2.25;;;24.90;99.80;;;;;;4994232;28;20243;-57
2022/06/12 12:12:02;;;;;;;5.40;1.90;;;25.00;99.90;;;;;;4993416;28;20173;-57
2022/06/12 12:14:30;;;;;;;7.82;2.47;;;25.20;99.90;;;;;;4991931;28;20291;-57
2022/06/12 12:17:02;;;;;;;5.93;2.13;;;25.20;98.30;;;;;;4991774;28;20247;-57
2022/06/12 12:19:46;;;;;;;4.60;1.77;;;25.20;99.90;;;;;;4991967;28;20259;-57
2022/06/12 12:22:38;;;;;;;9.77;2.65;;;25.60;96.20;;;;;;4993717;28;20176;-57
2022/06/12 12:25:07;;;;;;;4.65;1.90;;;25.60;96.40;;;;;;4994047;28;20170;-57
2022/06/12 12:27:37;;;;;;;8.30;2.45;;;25.60;96.00;;;;;;4993886;28;20163;-57
2022/06/12 12:30:14;;;;;;;11.43;3.00;;;25.60;96.40;;;;;;4994006;28;20168;-57
2022/06/12 12:32:40;;;;;;;7.07;2.58;;;25.70;99.90;;;;;;4993936;28;20194;-56
2022/06/12 12:35:08;;;;;;;9.25;2.30;;;25.50;99.00;;;;;;4993358;28;20638;-57
2022/06/12 12:43:18;;;;;;;5.53;2.22;;;26.00;99.90;;;;;;4993454;28;20191;-56
2022/06/12 12:45:44;;;;;;;9.02;2.80;;;26.10;99.90;;;;;;4992693;28;20164;-56
2022/06/12 12:48:13;;;;;;;7.93;2.67;;;26.30;95.30;;;;;;4993101;28;20232;-56
2022/06/12 12:50:56;;;;;;;6.82;2.50;;;26.20;98.60;;;;;;4993407;28;20187;-56
2022/06/12 12:53:29;;;;;;;11.13;2.53;;;26.10;97.40;;;;;;4993186;28;20168;-57
2022/06/12 12:56:00;;;;;;;7.13;2.67;;;26.50;99.60;;;;;;4993076;28;20164;-57
2022/06/12 12:58:26;;;;;;;7.22;2.45;;;26.40;98.80;;;;;;4993387;28;20849;-57
2022/06/12 13:01:17;;;;;;;9.55;2.97;;;26.30;99.90;;;;;;4993013;28;20231;-56
2022/06/12 13:03:47;;;;;;;8.02;2.83;;;26.60;99.90;;;;;;4993203;28;20172;-57
2022/06/12 13:06:13;;;;;;;8.55;2.83;;;26.20;99.40;;;;;;4993230;28;20171;-57
2022/06/12 13:08:47;;;;;;;8.48;2.63;;;25.70;99.90;;;;;;4992932;28;20160;-57
2022/06/12 13:11:32;;;;;;;12.07;2.85;;;25.40;99.90;;;;;;4992937;28;20545;-57
2022/06/12 13:14:12;;;;;;;7.25;2.58;;;25.90;99.90;;;;;;4992911;28;20168;-58
2022/06/12 13:16:51;;;;;;;7.65;2.75;;;25.80;99.90;;;;;;4992665;28;20179;-57
2022/06/12 13:19:29;;;;;;;8.52;2.47;;;25.80;99.90;;;;;;4992661;28;20176;-58
2022/06/12 13:22:15;;;;;;;8.90;2.78;;;25.70;99.90;;;;;;4992668;28;20178;-57
2022/06/12 13:24:42;;;;;;;11.23;2.58;;;25.80;99.90;;;;;;4992727;28;20172;-57
2022/06/12 13:27:26;;;;;;;7.28;2.35;;;26.20;99.90;;;;;;4992573;28;20221;-57
2022/06/12 13:29:54;;;;;;;6.93;2.33;;;25.90;99.90;;;;;;4992569;28;20160;-58
2022/06/12 13:32:32;;;;;;;8.48;2.42;;;25.90;96.50;;;;;;4992460;28;20172;-57
2022/06/12 13:35:03;;;;;;;6.93;2.22;;;26.30;97.70;;;;;;4992613;28;20172;-57
2022/06/12 13:37:33;;;;;;;6.50;2.47;;;26.20;97.40;;;;;;4992419;28;20597;-57